• Join FlightAware (Why Join?)
  • Login
  • US Flag GB Flag 
14:49 EDT


 

Airport Tracker/Info


-or-


 

Live Flight TrackerFlight Track Log ✈ SWA558 ✈ 19-Apr-2013 ✈ KMDW - KAUS

Flight Track Log - Related Links

Times and Time Zones

All times are in EDT time to prevent confusion due to time zone crossing. See the SWA558 flight status page for this flight to view local times or setup timezone preferences in your user account.

Time Position Orientation Groundspeed Altitude Reporting Facility
EDT Latitude Longitude Course Direction KTS MPH feet Rate Location/Type
16:11 41.7667 -87.7667 217° Southwest 145 167 2,300  Level Chicago TRACON
16:12 41.6919 -87.8422 217° Southwest 216 249 6,600 2,820 Climbing Chicago Center
16:13 41.6408 -87.9028 222° Southwest 243 280 9,600 3,000 Climbing Chicago Center
16:14 41.5875 -87.9656 221° Southwest 255 293 12,800 3,000 Climbing Chicago Center
16:15 41.5303 -88.0308 221° Southwest 271 312 15,900 2,220 Climbing Chicago Center
16:16 41.4642 -88.1064 221° Southwest 329 379 17,400 2,460 Climbing Chicago Center
16:17 41.3739 -88.1936 216° Southwest 352 405 21,100 2,820 Climbing Chicago Center
16:18 41.2781 -88.2369 199° South 369 425 23,300 2,280 Climbing Chicago Center
16:19 41.1822 -88.2808 199° South 370 426 25,900 1,980 Climbing Chicago Center
16:20 41.0850 -88.3253 199° South 370 426 27,400 1,560 Climbing Chicago Center
16:21 40.9581 -88.3831 199° South 397 457 29,200 1,740 Climbing Chicago Center
16:22 40.8514 -88.4311 199° South 407 468 31,000 1,800 Climbing Chicago Center
16:23 40.7461 -88.4769 198° South 401 461 33,000 1,620 Climbing Chicago Center
16:25 40.6428 -88.5228 199° South 393 452 34,400 960 Climbing Chicago Center
16:26 40.5556 -88.6078 217° Southwest 394 453 35,000 960 Climbing Chicago Center
16:27 40.4544 -88.7269 222° Southwest 406 467 36,500 1,260 Climbing Chicago Center
16:28 40.3844 -88.8053 220° Southwest 394 453 37,700 720 Climbing Chicago Center
16:29 40.3028 -88.8978 221° Southwest 388 447 38,000 120 Climbing Chicago Center
16:30 40.2033 -89.0097 221° Southwest 392 451 38,000  Level Chicago Center
16:31 40.1186 -89.1044 221° Southwest 397 457 38,000  Level Chicago Center
16:32 40.0331 -89.1983 220° Southwest 396 456 38,000  Level Kansas City Center
16:33 39.9500 -89.2933 221° Southwest 396 456 38,000  Level Kansas City Center
16:34 39.8675 -89.3917 222° Southwest 398 458 38,000  Level Kansas City Center
16:35 39.7861 -89.4906 223° Southwest 399 459 38,000  Level Kansas City Center
16:36 39.7075 -89.5825 222° Southwest 398 458 38,000  Level Kansas City Center
16:37 39.6081 -89.6972 222° Southwest 398 458 38,000  Level Kansas City Center
16:38 39.5261 -89.7947 223° Southwest 399 459 38,000  Level Kansas City Center
16:39 39.4439 -89.8908 222° Southwest 400 460 38,000  Level Kansas City Center
16:40 39.3611 -89.9881 222° Southwest 401 461 38,000  Level Kansas City Center
16:41 39.2778 -90.0833 222° Southwest 402 463 38,000  Level Kansas City Center
16:42 39.1933 -90.1811 222° Southwest 406 467 38,000  Level Kansas City Center
16:43 39.0936 -90.2975 222° Southwest 406 467 38,000  Level Kansas City Center
16:44 39.0106 -90.3925 222° Southwest 404 465 38,000  Level Kansas City Center
16:45 38.9200 -90.4953 221° Southwest 400 460 38,000  Level Kansas City Center
16:46 38.8364 -90.5900 221° Southwest 397 457 38,000  Level Kansas City Center
16:47 38.7492 -90.6883 221° Southwest 394 453 38,000  Level Kansas City Center
16:48 38.6683 -90.7803 222° Southwest 392 451 38,000  Level Kansas City Center
16:49 38.5867 -90.8722 221° Southwest 393 452 38,000  Level Kansas City Center
16:50 38.5056 -90.9639 222° Southwest 391 450 38,000  Level Kansas City Center
16:51 38.4242 -91.0556 221° Southwest 391 450 38,000  Level Kansas City Center
16:52 38.3272 -91.1639 221° Southwest 389 448 38,000  Level Kansas City Center
16:53 38.2464 -91.2533 221° Southwest 388 447 38,000  Level Kansas City Center
16:54 38.1664 -91.3419 221° Southwest 386 444 38,000  Level Kansas City Center
16:55 38.0844 -91.4325 221° Southwest 382 440 38,000  Level Kansas City Center
16:57 38.0011 -91.5242 221° Southwest 390 449 38,000  Level Kansas City Center
16:58 37.9194 -91.6131 221° Southwest 387 445 38,000  Level Kansas City Center
16:59 37.8394 -91.7019 221° Southwest 382 440 38,000  Level Kansas City Center
17:00 37.7417 -91.8108 221° Southwest 385 443 38,000  Level Kansas City Center
17:01 37.6597 -91.8994 221° Southwest 383 441 38,000  Level Kansas City Center
17:02 37.5789 -91.9889 221° Southwest 383 441 38,000  Level Kansas City Center
17:03 37.4967 -92.0775 221° Southwest 384 442 38,000  Level Kansas City Center
17:04 37.4142 -92.1661 220° Southwest 384 442 38,000  Level Kansas City Center
17:05 37.3317 -92.2539 220° Southwest 385 443 38,000  Level Kansas City Center
17:06 37.2508 -92.3406 220° Southwest 382 440 38,000  Level Kansas City Center
17:07 37.1700 -92.4275 221° Southwest 381 438 38,000  Level Kansas City Center
17:08 37.0733 -92.5306 220° Southwest 378 435 38,000  Level Kansas City Center
17:09 36.9922 -92.6156 220° Southwest 379 436 38,000  Level Kansas City Center
17:10 36.9097 -92.7017 220° Southwest 382 440 38,000  Level Kansas City Center
17:11 36.8481 -92.7733 223° Southwest 381 438 38,000  Level Memphis Center
17:12 36.7589 -92.8639 219° Southwest 381 438 38,000  Level Memphis Center
17:13 36.6758 -92.9544 221° Southwest 386 444 38,000  Level Memphis Center
17:14 36.5947 -93.0369 219° Southwest 386 444 38,000  Level Memphis Center
17:15 36.5114 -93.1272 221° Southwest 386 444 38,000  Level Memphis Center
17:16 36.4347 -93.2019 218° Southwest 386 444 38,000  Level Memphis Center
17:17 36.3494 -93.2919 220° Southwest 391 450 38,000  Level Memphis Center
17:18 36.2658 -93.3789 220° Southwest 391 450 38,000  Level Memphis Center
17:19 36.1825 -93.4658 220° Southwest 391 450 38,000  Level Memphis Center
17:20 36.0969 -93.5500 218° Southwest 391 450 38,000  Level Memphis Center
17:21 36.0028 -93.6464 220° Southwest 396 456 38,000  Level Memphis Center
17:22 35.9192 -93.7328 220° Southwest 396 456 38,000  Level Memphis Center
17:23 35.8353 -93.8189 220° Southwest 396 456 38,000  Level Memphis Center
17:24 35.7494 -93.9047 219° Southwest 396 456 38,000  Level Memphis Center
17:25 35.6658 -93.9906 220° Southwest 396 456 38,000  Level Memphis Center
17:26 35.5819 -94.0739 219° Southwest 396 456 38,000  Level Memphis Center
17:27 35.5003 -94.1569 220° Southwest 391 450 38,000  Level Memphis Center
17:28 35.4142 -94.2419 219° Southwest 391 450 38,000  Level Memphis Center
17:29 35.3283 -94.3169 215° Southwest 391 450 38,000  Level Memphis Center
17:31 35.1175 -94.4819 213° Southwest 392 451 38,000  Level Fort Worth Center
17:32 35.0253 -94.5511 212° Southwest 398 458 38,000  Level Fort Worth Center
17:33 34.9331 -94.6225 212° Southwest 393 452 38,000  Level Fort Worth Center
17:34 34.8408 -94.6914 212° Southwest 393 452 38,000  Level Fort Worth Center
17:35 34.7483 -94.7625 212° Southwest 393 452 38,000  Level Fort Worth Center
17:36 34.6539 -94.8336 212° Southwest 398 458 38,000  Level Fort Worth Center
17:37 34.5614 -94.9019 211° Southwest 398 458 38,000  Level Fort Worth Center
17:38 34.4647 -94.9753 212° Southwest 398 458 38,000  Level Fort Worth Center
17:39 34.3742 -95.0433 212° Southwest 398 458 38,000  Level Fort Worth Center
17:40 34.2794 -95.1114 211° Southwest 398 458 38,000  Level Fort Worth Center
17:41 34.1869 -95.1814 212° Southwest 398 458 38,000  Level Fort Worth Center
17:42 34.0964 -95.2489 212° Southwest 393 452 38,000  Level Fort Worth Center
17:43 34.0014 -95.3189 211° Southwest 393 452 38,000  Level Fort Worth Center
17:44 33.9086 -95.3889 212° Southwest 393 452 38,000  Level Fort Worth Center
17:45 33.8181 -95.4533 211° Southwest 393 452 38,000  Level Fort Worth Center
17:46 33.7272 -95.5203 212° Southwest 393 452 38,000  Level Fort Worth Center
17:47 33.6322 -95.5922 212° Southwest 380 437 38,000  Level Fort Worth Center
17:48 33.5392 -95.6589 211° Southwest 380 437 38,000  Level Fort Worth Center
17:49 33.4503 -95.7256 212° Southwest 385 443 38,000  Level Fort Worth Center
17:50 33.3656 -95.7819 209° Southwest 385 443 38,000  Level Fort Worth Center
17:51 33.2725 -95.8481 211° Southwest 385 443 38,000  Level Fort Worth Center
17:52 33.1814 -95.9142 211° Southwest 385 443 38,000  Level Fort Worth Center
17:53 33.0883 -95.9828 212° Southwest 390 449 38,000  Level Fort Worth Center
17:54 32.9950 -96.0486 211° Southwest 390 449 38,000  Level Fort Worth Center
17:55 32.9019 -96.1169 212° Southwest 396 456 38,000  Level Fort Worth Center
17:56 32.7983 -96.1900 211° Southwest 396 456 38,000  Level Fort Worth Center
17:57 32.7050 -96.2581 212° Southwest 396 456 38,000  Level Fort Worth Center
17:58 32.6136 -96.3233 211° Southwest 396 456 38,000  Level Fort Worth Center
17:59 32.5181 -96.3908 211° Southwest 396 456 38,000  Level Fort Worth Center
18:00 32.4247 -96.4536 210° Southwest 396 456 38,000  Level Fort Worth Center
18:01 32.3333 -96.5208 212° Southwest 396 456 38,000  Level Fort Worth Center
18:02 32.2378 -96.5881 211° Southwest 396 456 38,000  Level Fort Worth Center
18:03 32.1547 -96.6478 211° Southwest 396 456 38,000 -600 Level Fort Worth Center
18:04 32.0569 -96.7050 206° Southwest 396 456 36,900 -1,020 Descending Fort Worth Center
18:05 31.9611 -96.7644 208° Southwest 396 456 36,000 -960 Descending Fort Worth Center
18:06 31.8444 -96.8019 195° South 390 449 35,000 -1,020 Descending Fort Worth Center
18:07 31.7211 -96.7833 173° South 410 472 34,000 -1,320 Descending Fort Worth Center
18:08 31.6022 -96.7792 178° South 425 489 32,400 -1,980 Descending Fort Worth Center
18:09 31.5714 -96.7894 196° South 417 480 31,400 -1,860 Descending Houston Center
18:10 31.4553 -96.8228 194° South 421 484 29,800 -1,260 Descending Houston Center
18:11 31.3767 -96.8994 220° Southwest 371 427 28,800 -1,260 Descending Houston Center
18:12 31.3219 -97.0036 238° Southwest 374 430 27,200 -2,280 Descending Houston Center
18:13 31.2572 -97.1203 237° Southwest 366 421 24,100 -2,520 Descending Houston Center
18:14 31.1944 -97.2117 231° Southwest 369 425 22,000 -2,460 Descending Houston Center
18:15 31.0928 -97.2547 200° South 384 442 19,100 -2,760 Descending Houston Center
18:16 30.9894 -97.2950 198° South 391 450 16,300 -2,760 Descending Houston Center
18:17 30.8722 -97.3400 198° South 393 452 13,400 -2,040 Descending Houston Center
18:18 30.7758 -97.3769 198° South 371 427 12,200 -1,260 Descending Houston Center
18:19 30.6867 -97.4261 205° Southwest 353 406 10,800 -1,200 Descending Houston Center
18:20 30.6094 -97.4792 211° Southwest 327 376 9,800 -900 Descending Houston Center
18:21 30.5469 -97.5364 218° Southwest 293 337 9,000 -960 Descending Houston Center
18:22 30.4733 -97.5656 199° South 299 344 7,900 -1,020 Descending Houston Center
18:23 30.3919 -97.5556 174° South 293 337 7,000 -1,260 Descending Houston Center
18:24 30.3039 -97.5447 174° South 275 316 5,400 -1,020 Descending Houston Center
18:25 30.2269 -97.5339 173° South 275 316 5,000 -240 Descending Houston Center
18:26 30.1606 -97.5267 175° South 246 283 5,000 -60 Level Houston Center
18:27 30.0978 -97.5442 194° South 234 269 4,900 -480 Descending Houston Center
18:28 30.0303 -97.5742 201° Southwest 231 266 4,000 -480 Descending Houston Center
18:29 29.9867 -97.6086 214° Southwest 212 244 4,000 -480 Level Houston Center
18:30 30.0306 -97.6497 321° Northwest 204 235 3,100 -900 Descending Houston Center
18:31 30.0856 -97.6539 356° North 200 230 2,200 -780 Descending Houston Center
18:32 30.1272 -97.6558 358° North 170 196 1,500 -540 Descending Houston Center
18:33 30.1619 -97.6572 358° North 161 185 1,200 -300 Descending Houston Center